sensor_id;sensor_type;location;lat;lon;timestamp;P1;durP1;ratioP1;P2;durP2;ratioP2
76701;SDS011;70097;44.536;0.146;2023-08-06T00:00:34;19.97;;;2.30;;
76701;SDS011;70097;44.536;0.146;2023-08-06T00:06:06;20.07;;;3.17;;
76701;SDS011;70097;44.536;0.146;2023-08-06T00:11:39;14.00;;;2.47;;
76701;SDS011;70097;44.536;0.146;2023-08-06T00:17:12;18.77;;;3.73;;
76701;SDS011;70097;44.536;0.146;2023-08-06T00:22:44;19.03;;;3.10;;
76701;SDS011;70097;44.536;0.146;2023-08-06T00:28:17;13.97;;;2.90;;
76701;SDS011;70097;44.536;0.146;2023-08-06T00:33:50;20.93;;;3.10;;
76701;SDS011;70097;44.536;0.146;2023-08-06T00:39:23;18.23;;;2.27;;
76701;SDS011;70097;44.536;0.146;2023-08-06T00:44:55;23.80;;;4.97;;
76701;SDS011;70097;44.536;0.146;2023-08-06T00:50:29;17.70;;;3.30;;
76701;SDS011;70097;44.536;0.146;2023-08-06T00:56:01;22.00;;;2.80;;
76701;SDS011;70097;44.536;0.146;2023-08-06T01:01:33;20.77;;;4.00;;
76701;SDS011;70097;44.536;0.146;2023-08-06T01:07:09;17.10;;;2.67;;
76701;SDS011;70097;44.536;0.146;2023-08-06T01:12:41;19.40;;;3.37;;
76701;SDS011;70097;44.536;0.146;2023-08-06T01:18:12;21.20;;;3.13;;
76701;SDS011;70097;44.536;0.146;2023-08-06T01:23:45;25.37;;;3.20;;
76701;SDS011;70097;44.536;0.146;2023-08-06T01:29:19;25.70;;;4.17;;
76701;SDS011;70097;44.536;0.146;2023-08-06T01:34:50;15.50;;;3.77;;
76701;SDS011;70097;44.536;0.146;2023-08-06T01:40:23;22.57;;;4.50;;
76701;SDS011;70097;44.536;0.146;2023-08-06T01:45:57;15.37;;;2.10;;
76701;SDS011;70097;44.536;0.146;2023-08-06T01:51:29;20.90;;;4.00;;
76701;SDS011;70097;44.536;0.146;2023-08-06T01:57:01;22.07;;;2.53;;
76701;SDS011;70097;44.536;0.146;2023-08-06T02:02:35;18.23;;;3.67;;
76701;SDS011;70097;44.536;0.146;2023-08-06T02:08:08;17.77;;;3.87;;
76701;SDS011;70097;44.536;0.146;2023-08-06T02:13:40;15.20;;;3.33;;
76701;SDS011;70097;44.536;0.146;2023-08-06T02:19:14;12.20;;;1.90;;
76701;SDS011;70097;44.536;0.146;2023-08-06T02:24:47;18.20;;;3.07;;
76701;SDS011;70097;44.536;0.146;2023-08-06T02:30:19;21.33;;;2.70;;
76701;SDS011;70097;44.536;0.146;2023-08-06T02:35:58;14.37;;;2.87;;
76701;SDS011;70097;44.536;0.146;2023-08-06T02:41:24;16.70;;;2.73;;
76701;SDS011;70097;44.536;0.146;2023-08-06T02:46:57;17.17;;;2.40;;
76701;SDS011;70097;44.536;0.146;2023-08-06T02:52:28;15.27;;;2.83;;
76701;SDS011;70097;44.536;0.146;2023-08-06T02:58:01;14.83;;;3.43;;
76701;SDS011;70097;44.536;0.146;2023-08-06T03:03:35;19.13;;;3.50;;
76701;SDS011;70097;44.536;0.146;2023-08-06T03:09:07;24.67;;;4.83;;
76701;SDS011;70097;44.536;0.146;2023-08-06T03:14:40;19.67;;;3.13;;
76701;SDS011;70097;44.536;0.146;2023-08-06T03:20:12;18.17;;;2.60;;
76701;SDS011;70097;44.536;0.146;2023-08-06T03:25:44;21.77;;;3.77;;
76701;SDS011;70097;44.536;0.146;2023-08-06T03:31:17;21.33;;;2.30;;
76701;SDS011;70097;44.536;0.146;2023-08-06T03:36:50;20.47;;;2.50;;
76701;SDS011;70097;44.536;0.146;2023-08-06T03:42:24;16.10;;;2.60;;
76701;SDS011;70097;44.536;0.146;2023-08-06T03:47:56;27.20;;;2.97;;
76701;SDS011;70097;44.536;0.146;2023-08-06T03:53:27;20.43;;;2.20;;
76701;SDS011;70097;44.536;0.146;2023-08-06T03:58:59;13.93;;;2.80;;
76701;SDS011;70097;44.536;0.146;2023-08-06T04:04:32;18.37;;;2.87;;
76701;SDS011;70097;44.536;0.146;2023-08-06T04:10:04;16.97;;;3.13;;
76701;SDS011;70097;44.536;0.146;2023-08-06T04:15:36;19.67;;;3.00;;
76701;SDS011;70097;44.536;0.146;2023-08-06T04:21:10;16.37;;;2.53;;
76701;SDS011;70097;44.536;0.146;2023-08-06T04:26:42;27.20;;;3.03;;
76701;SDS011;70097;44.536;0.146;2023-08-06T04:32:16;14.17;;;2.37;;
76701;SDS011;70097;44.536;0.146;2023-08-06T04:37:49;17.17;;;3.03;;
76701;SDS011;70097;44.536;0.146;2023-08-06T04:43:21;20.03;;;3.60;;
76701;SDS011;70097;44.536;0.146;2023-08-06T04:48:54;18.87;;;3.30;;
76701;SDS011;70097;44.536;0.146;2023-08-06T04:54:27;18.53;;;2.80;;
76701;SDS011;70097;44.536;0.146;2023-08-06T05:00:01;21.17;;;2.83;;
76701;SDS011;70097;44.536;0.146;2023-08-06T05:05:33;18.37;;;3.50;;
76701;SDS011;70097;44.536;0.146;2023-08-06T05:11:07;20.17;;;2.73;;
76701;SDS011;70097;44.536;0.146;2023-08-06T05:16:40;16.43;;;2.03;;
76701;SDS011;70097;44.536;0.146;2023-08-06T05:22:13;19.30;;;2.53;;
76701;SDS011;70097;44.536;0.146;2023-08-06T05:27:45;21.00;;;3.90;;
76701;SDS011;70097;44.536;0.146;2023-08-06T05:33:19;16.20;;;3.47;;
76701;SDS011;70097;44.536;0.146;2023-08-06T05:38:51;14.80;;;1.83;;
76701;SDS011;70097;44.536;0.146;2023-08-06T05:44:24;19.57;;;3.33;;
76701;SDS011;70097;44.536;0.146;2023-08-06T05:49:57;17.30;;;2.73;;
76701;SDS011;70097;44.536;0.146;2023-08-06T05:55:29;19.13;;;2.17;;
76701;SDS011;70097;44.536;0.146;2023-08-06T06:01:03;15.97;;;2.47;;
76701;SDS011;70097;44.536;0.146;2023-08-06T06:06:36;19.03;;;2.40;;
76701;SDS011;70097;44.536;0.146;2023-08-06T06:12:10;19.10;;;2.27;;
76701;SDS011;70097;44.536;0.146;2023-08-06T06:17:43;17.27;;;2.97;;
76701;SDS011;70097;44.536;0.146;2023-08-06T06:23:17;12.40;;;1.90;;
76701;SDS011;70097;44.536;0.146;2023-08-06T06:28:49;16.90;;;3.00;;
76701;SDS011;70097;44.536;0.146;2023-08-06T06:34:21;13.10;;;2.50;;
76701;SDS011;70097;44.536;0.146;2023-08-06T06:39:54;14.33;;;2.63;;
76701;SDS011;70097;44.536;0.146;2023-08-06T06:45:27;19.27;;;2.80;;
76701;SDS011;70097;44.536;0.146;2023-08-06T06:51:01;12.87;;;1.77;;
76701;SDS011;70097;44.536;0.146;2023-08-06T06:56:34;10.93;;;1.93;;
76701;SDS011;70097;44.536;0.146;2023-08-06T07:02:07;19.47;;;2.00;;
76701;SDS011;70097;44.536;0.146;2023-08-06T07:07:39;12.37;;;1.70;;
76701;SDS011;70097;44.536;0.146;2023-08-06T07:13:12;8.30;;;1.90;;
76701;SDS011;70097;44.536;0.146;2023-08-06T07:18:45;11.07;;;1.83;;
76701;SDS011;70097;44.536;0.146;2023-08-06T07:24:17;13.30;;;2.20;;
76701;SDS011;70097;44.536;0.146;2023-08-06T07:29:50;16.73;;;2.27;;
76701;SDS011;70097;44.536;0.146;2023-08-06T07:35:23;18.37;;;2.60;;
76701;SDS011;70097;44.536;0.146;2023-08-06T07:40:55;13.17;;;2.13;;
76701;SDS011;70097;44.536;0.146;2023-08-06T07:46:27;8.37;;;1.60;;
76701;SDS011;70097;44.536;0.146;2023-08-06T07:52:00;49.87;;;4.70;;
76701;SDS011;70097;44.536;0.146;2023-08-06T07:57:33;9.60;;;1.47;;
76701;SDS011;70097;44.536;0.146;2023-08-06T08:03:07;14.33;;;2.17;;
76701;SDS011;70097;44.536;0.146;2023-08-06T08:08:40;22.53;;;3.90;;
76701;SDS011;70097;44.536;0.146;2023-08-06T08:14:13;15.33;;;1.80;;
76701;SDS011;70097;44.536;0.146;2023-08-06T08:19:46;13.47;;;1.57;;
76701;SDS011;70097;44.536;0.146;2023-08-06T08:25:19;9.40;;;1.27;;
76701;SDS011;70097;44.536;0.146;2023-08-06T08:30:51;8.70;;;1.70;;
76701;SDS011;70097;44.536;0.146;2023-08-06T08:36:25;8.00;;;1.90;;
76701;SDS011;70097;44.536;0.146;2023-08-06T08:41:57;10.60;;;1.53;;
76701;SDS011;70097;44.536;0.146;2023-08-06T08:47:30;7.33;;;2.43;;
76701;SDS011;70097;44.536;0.146;2023-08-06T08:53:02;9.53;;;1.30;;
76701;SDS011;70097;44.536;0.146;2023-08-06T08:58:35;5.67;;;1.17;;
76701;SDS011;70097;44.536;0.146;2023-08-06T09:04:08;15.73;;;2.60;;
76701;SDS011;70097;44.536;0.146;2023-08-06T09:09:40;9.27;;;2.13;;
76701;SDS011;70097;44.536;0.146;2023-08-06T09:15:14;9.30;;;1.60;;
76701;SDS011;70097;44.536;0.146;2023-08-06T09:20:48;8.27;;;1.70;;
76701;SDS011;70097;44.536;0.146;2023-08-06T09:26:19;6.77;;;1.77;;
76701;SDS011;70097;44.536;0.146;2023-08-06T09:31:51;6.37;;;1.63;;
76701;SDS011;70097;44.536;0.146;2023-08-06T09:37:24;8.13;;;2.10;;
76701;SDS011;70097;44.536;0.146;2023-08-06T09:42:57;6.90;;;1.93;;
76701;SDS011;70097;44.536;0.146;2023-08-06T09:48:31;8.33;;;1.27;;
76701;SDS011;70097;44.536;0.146;2023-08-06T09:54:04;10.40;;;2.00;;
76701;SDS011;70097;44.536;0.146;2023-08-06T10:05:11;5.03;;;1.27;;
76701;SDS011;70097;44.536;0.146;2023-08-06T10:16:15;9.87;;;1.37;;
76701;SDS011;70097;44.536;0.146;2023-08-06T10:27:20;8.00;;;1.47;;
76701;SDS011;70097;44.536;0.146;2023-08-06T10:32:51;7.17;;;1.43;;
76701;SDS011;70097;44.536;0.146;2023-08-06T10:38:24;6.33;;;2.43;;
76701;SDS011;70097;44.536;0.146;2023-08-06T10:55:04;6.03;;;1.00;;
76701;SDS011;70097;44.536;0.146;2023-08-06T11:00:37;5.70;;;1.73;;
76701;SDS011;70097;44.536;0.146;2023-08-06T11:06:10;8.53;;;1.50;;
76701;SDS011;70097;44.536;0.146;2023-08-06T11:11:43;5.10;;;1.13;;
76701;SDS011;70097;44.536;0.146;2023-08-06T11:17:16;7.63;;;1.30;;
76701;SDS011;70097;44.536;0.146;2023-08-06T11:22:48;17.10;;;5.57;;
76701;SDS011;70097;44.536;0.146;2023-08-06T11:28:21;5.43;;;0.97;;
76701;SDS011;70097;44.536;0.146;2023-08-06T11:33:54;9.63;;;1.60;;
76701;SDS011;70097;44.536;0.146;2023-08-06T11:39:26;3.30;;;0.90;;
76701;SDS011;70097;44.536;0.146;2023-08-06T11:44:59;6.13;;;1.10;;
76701;SDS011;70097;44.536;0.146;2023-08-06T11:50:35;7.43;;;1.93;;
76701;SDS011;70097;44.536;0.146;2023-08-06T11:56:06;4.17;;;0.80;;
76701;SDS011;70097;44.536;0.146;2023-08-06T12:01:39;7.30;;;1.20;;
76701;SDS011;70097;44.536;0.146;2023-08-06T12:07:12;4.63;;;0.90;;
76701;SDS011;70097;44.536;0.146;2023-08-06T12:12:44;8.17;;;1.37;;
76701;SDS011;70097;44.536;0.146;2023-08-06T12:18:16;7.60;;;1.97;;
76701;SDS011;70097;44.536;0.146;2023-08-06T12:23:49;4.10;;;0.97;;
76701;SDS011;70097;44.536;0.146;2023-08-06T12:29:21;6.70;;;1.13;;
76701;SDS011;70097;44.536;0.146;2023-08-06T12:34:53;6.83;;;1.43;;
76701;SDS011;70097;44.536;0.146;2023-08-06T12:40:26;7.67;;;1.27;;
76701;SDS011;70097;44.536;0.146;2023-08-06T12:45:58;5.13;;;1.10;;
76701;SDS011;70097;44.536;0.146;2023-08-06T12:51:30;6.20;;;1.07;;
76701;SDS011;70097;44.536;0.146;2023-08-06T12:57:04;5.00;;;1.10;;
76701;SDS011;70097;44.536;0.146;2023-08-06T13:02:36;4.23;;;1.13;;
76701;SDS011;70097;44.536;0.146;2023-08-06T13:08:08;4.60;;;1.40;;
76701;SDS011;70097;44.536;0.146;2023-08-06T13:13:42;3.50;;;0.90;;
76701;SDS011;70097;44.536;0.146;2023-08-06T13:19:15;2.10;;;0.90;;
76701;SDS011;70097;44.536;0.146;2023-08-06T13:24:48;4.97;;;1.13;;
76701;SDS011;70097;44.536;0.146;2023-08-06T13:30:21;5.77;;;1.53;;
76701;SDS011;70097;44.536;0.146;2023-08-06T13:35:53;4.40;;;1.03;;
76701;SDS011;70097;44.536;0.146;2023-08-06T13:41:27;2.90;;;0.83;;
76701;SDS011;70097;44.536;0.146;2023-08-06T13:46:59;6.83;;;1.13;;
76701;SDS011;70097;44.536;0.146;2023-08-06T13:52:33;4.33;;;1.10;;
76701;SDS011;70097;44.536;0.146;2023-08-06T13:58:07;3.30;;;0.90;;
76701;SDS011;70097;44.536;0.146;2023-08-06T14:03:40;5.90;;;1.20;;
76701;SDS011;70097;44.536;0.146;2023-08-06T14:09:12;5.50;;;1.20;;
76701;SDS011;70097;44.536;0.146;2023-08-06T14:14:45;5.20;;;1.30;;
76701;SDS011;70097;44.536;0.146;2023-08-06T14:20:17;5.63;;;1.40;;
76701;SDS011;70097;44.536;0.146;2023-08-06T14:25:51;3.93;;;1.60;;
76701;SDS011;70097;44.536;0.146;2023-08-06T14:31:23;5.63;;;1.60;;
76701;SDS011;70097;44.536;0.146;2023-08-06T14:36:56;3.30;;;1.10;;
76701;SDS011;70097;44.536;0.146;2023-08-06T14:42:28;7.43;;;1.00;;
76701;SDS011;70097;44.536;0.146;2023-08-06T14:48:00;7.20;;;1.20;;
76701;SDS011;70097;44.536;0.146;2023-08-06T14:53:33;7.13;;;1.90;;
76701;SDS011;70097;44.536;0.146;2023-08-06T14:59:07;6.07;;;1.20;;
76701;SDS011;70097;44.536;0.146;2023-08-06T15:04:40;5.73;;;1.00;;
76701;SDS011;70097;44.536;0.146;2023-08-06T15:10:14;5.20;;;1.27;;
76701;SDS011;70097;44.536;0.146;2023-08-06T15:15:48;6.70;;;1.20;;
76701;SDS011;70097;44.536;0.146;2023-08-06T15:21:21;4.47;;;1.10;;
76701;SDS011;70097;44.536;0.146;2023-08-06T15:26:54;3.30;;;1.00;;
76701;SDS011;70097;44.536;0.146;2023-08-06T15:32:28;3.80;;;0.87;;
76701;SDS011;70097;44.536;0.146;2023-08-06T15:38:00;6.97;;;1.93;;
76701;SDS011;70097;44.536;0.146;2023-08-06T15:43:34;2.87;;;1.27;;
76701;SDS011;70097;44.536;0.146;2023-08-06T15:49:06;6.30;;;1.37;;
76701;SDS011;70097;44.536;0.146;2023-08-06T15:54:39;5.03;;;1.17;;
76701;SDS011;70097;44.536;0.146;2023-08-06T16:00:11;2.87;;;0.97;;
76701;SDS011;70097;44.536;0.146;2023-08-06T16:05:45;4.40;;;1.00;;
76701;SDS011;70097;44.536;0.146;2023-08-06T16:11:17;5.77;;;0.90;;
76701;SDS011;70097;44.536;0.146;2023-08-06T16:16:50;3.87;;;1.37;;
76701;SDS011;70097;44.536;0.146;2023-08-06T16:22:22;5.87;;;1.23;;
76701;SDS011;70097;44.536;0.146;2023-08-06T16:27:56;5.80;;;0.80;;
76701;SDS011;70097;44.536;0.146;2023-08-06T16:33:28;4.50;;;0.90;;
76701;SDS011;70097;44.536;0.146;2023-08-06T16:39:02;6.17;;;1.00;;
76701;SDS011;70097;44.536;0.146;2023-08-06T16:44:34;4.57;;;1.10;;
76701;SDS011;70097;44.536;0.146;2023-08-06T16:50:07;5.40;;;1.30;;
76701;SDS011;70097;44.536;0.146;2023-08-06T16:55:40;6.67;;;1.80;;
76701;SDS011;70097;44.536;0.146;2023-08-06T17:01:13;5.97;;;2.27;;
76701;SDS011;70097;44.536;0.146;2023-08-06T17:06:46;5.83;;;1.00;;
76701;SDS011;70097;44.536;0.146;2023-08-06T17:12:18;6.37;;;1.07;;
76701;SDS011;70097;44.536;0.146;2023-08-06T17:17:50;4.47;;;1.20;;
76701;SDS011;70097;44.536;0.146;2023-08-06T17:23:23;5.47;;;1.87;;
76701;SDS011;70097;44.536;0.146;2023-08-06T17:28:55;8.17;;;1.30;;
76701;SDS011;70097;44.536;0.146;2023-08-06T17:34:27;11.57;;;2.70;;
76701;SDS011;70097;44.536;0.146;2023-08-06T17:39:59;4.27;;;0.90;;
76701;SDS011;70097;44.536;0.146;2023-08-06T17:45:31;7.07;;;1.10;;
76701;SDS011;70097;44.536;0.146;2023-08-06T17:51:03;5.03;;;1.13;;
76701;SDS011;70097;44.536;0.146;2023-08-06T17:56:35;3.27;;;0.80;;
76701;SDS011;70097;44.536;0.146;2023-08-06T18:02:08;2.50;;;0.83;;
76701;SDS011;70097;44.536;0.146;2023-08-06T18:07:41;7.07;;;1.10;;
76701;SDS011;70097;44.536;0.146;2023-08-06T18:13:12;1.97;;;0.70;;
76701;SDS011;70097;44.536;0.146;2023-08-06T18:18:45;4.00;;;1.13;;
76701;SDS011;70097;44.536;0.146;2023-08-06T18:24:18;4.67;;;0.67;;
76701;SDS011;70097;44.536;0.146;2023-08-06T18:29:51;3.17;;;1.00;;
76701;SDS011;70097;44.536;0.146;2023-08-06T18:35:25;4.07;;;1.13;;
76701;SDS011;70097;44.536;0.146;2023-08-06T18:40:59;3.20;;;0.70;;
76701;SDS011;70097;44.536;0.146;2023-08-06T18:46:31;4.00;;;1.07;;
76701;SDS011;70097;44.536;0.146;2023-08-06T18:52:03;3.03;;;0.70;;
76701;SDS011;70097;44.536;0.146;2023-08-06T18:57:36;5.73;;;1.00;;
76701;SDS011;70097;44.536;0.146;2023-08-06T19:03:08;2.37;;;0.80;;
76701;SDS011;70097;44.536;0.146;2023-08-06T19:08:41;8.63;;;0.97;;
76701;SDS011;70097;44.536;0.146;2023-08-06T19:14:14;4.90;;;1.07;;
76701;SDS011;70097;44.536;0.146;2023-08-06T19:19:46;2.33;;;0.90;;
76701;SDS011;70097;44.536;0.146;2023-08-06T19:25:19;3.90;;;0.70;;
76701;SDS011;70097;44.536;0.146;2023-08-06T19:30:52;5.10;;;0.90;;
76701;SDS011;70097;44.536;0.146;2023-08-06T19:36:25;1.57;;;0.57;;
76701;SDS011;70097;44.536;0.146;2023-08-06T19:41:58;2.30;;;0.60;;
76701;SDS011;70097;44.536;0.146;2023-08-06T19:47:31;2.30;;;0.73;;
76701;SDS011;70097;44.536;0.146;2023-08-06T19:53:03;2.50;;;0.70;;
76701;SDS011;70097;44.536;0.146;2023-08-06T19:58:36;1.77;;;0.60;;
76701;SDS011;70097;44.536;0.146;2023-08-06T20:04:08;6.47;;;0.90;;
76701;SDS011;70097;44.536;0.146;2023-08-06T20:09:41;4.13;;;0.90;;
76701;SDS011;70097;44.536;0.146;2023-08-06T20:15:13;5.93;;;0.70;;
76701;SDS011;70097;44.536;0.146;2023-08-06T20:20:46;3.07;;;0.80;;
76701;SDS011;70097;44.536;0.146;2023-08-06T20:26:19;2.60;;;0.80;;
76701;SDS011;70097;44.536;0.146;2023-08-06T20:31:52;5.20;;;0.87;;
76701;SDS011;70097;44.536;0.146;2023-08-06T20:37:25;3.93;;;0.53;;
76701;SDS011;70097;44.536;0.146;2023-08-06T20:42:57;3.67;;;0.77;;
76701;SDS011;70097;44.536;0.146;2023-08-06T20:48:30;3.63;;;0.70;;
76701;SDS011;70097;44.536;0.146;2023-08-06T20:54:04;2.57;;;0.77;;
76701;SDS011;70097;44.536;0.146;2023-08-06T20:59:37;3.27;;;1.47;;
76701;SDS011;70097;44.536;0.146;2023-08-06T21:05:10;5.47;;;0.80;;
76701;SDS011;70097;44.536;0.146;2023-08-06T21:10:44;5.03;;;0.70;;
76701;SDS011;70097;44.536;0.146;2023-08-06T21:21:48;4.07;;;1.40;;
76701;SDS011;70097;44.536;0.146;2023-08-06T21:27:21;3.70;;;1.07;;
76701;SDS011;70097;44.536;0.146;2023-08-06T21:32:53;4.10;;;0.90;;
76701;SDS011;70097;44.536;0.146;2023-08-06T21:38:26;3.83;;;1.00;;
76701;SDS011;70097;44.536;0.146;2023-08-06T21:43:59;2.37;;;0.80;;
76701;SDS011;70097;44.536;0.146;2023-08-06T21:49:32;9.37;;;2.60;;
76701;SDS011;70097;44.536;0.146;2023-08-06T21:55:06;4.63;;;0.87;;
76701;SDS011;70097;44.536;0.146;2023-08-06T22:00:38;6.97;;;1.20;;
76701;SDS011;70097;44.536;0.146;2023-08-06T22:06:12;4.60;;;1.03;;
76701;SDS011;70097;44.536;0.146;2023-08-06T22:11:44;5.20;;;1.00;;
76701;SDS011;70097;44.536;0.146;2023-08-06T22:17:18;5.43;;;0.80;;
76701;SDS011;70097;44.536;0.146;2023-08-06T22:22:51;3.53;;;0.80;;
76701;SDS011;70097;44.536;0.146;2023-08-06T22:28:24;3.13;;;1.10;;
76701;SDS011;70097;44.536;0.146;2023-08-06T22:33:56;14.57;;;2.40;;
76701;SDS011;70097;44.536;0.146;2023-08-06T22:39:30;5.30;;;1.13;;
76701;SDS011;70097;44.536;0.146;2023-08-06T22:45:03;4.57;;;1.20;;
76701;SDS011;70097;44.536;0.146;2023-08-06T22:50:35;5.13;;;1.13;;
76701;SDS011;70097;44.536;0.146;2023-08-06T22:56:09;6.30;;;1.10;;
76701;SDS011;70097;44.536;0.146;2023-08-06T23:01:41;11.37;;;1.30;;
76701;SDS011;70097;44.536;0.146;2023-08-06T23:07:15;6.67;;;1.30;;
76701;SDS011;70097;44.536;0.146;2023-08-06T23:12:48;5.57;;;1.10;;
76701;SDS011;70097;44.536;0.146;2023-08-06T23:18:21;5.97;;;1.00;;
76701;SDS011;70097;44.536;0.146;2023-08-06T23:23:54;4.00;;;1.10;;
76701;SDS011;70097;44.536;0.146;2023-08-06T23:29:28;9.03;;;1.20;;
76701;SDS011;70097;44.536;0.146;2023-08-06T23:35:01;6.00;;;0.80;;
76701;SDS011;70097;44.536;0.146;2023-08-06T23:40:33;4.47;;;1.20;;
76701;SDS011;70097;44.536;0.146;2023-08-06T23:46:06;5.57;;;1.10;;
76701;SDS011;70097;44.536;0.146;2023-08-06T23:51:39;4.67;;;1.27;;
76701;SDS011;70097;44.536;0.146;2023-08-06T23:57:12;12.40;;;1.70;;
